« 道草 龍ヶ崎飛行場 2014/11/7 fri | トップページ | 飴ちゃん 小松飛行場 2014/11/10 mon »

2014/11/11

定点 富山空港 2014/11/11 tue

今日も青空。しかし風は北にまわって、だんだん肌寒くなってきている。下界は紅葉が見頃。

RJNT 110200Z 34005KT 290V030 9999 FEW040 15/06 Q1016

20141111_rjnt_00ja6769

県警格納庫では、6769と139Tが仲良く同居していた。今日の活動はなし。

20141111_rjnt_01ja6768

JA6768 B412 富山県消防防災

朝から、サーチ飛行で海岸線を飛んでいた。この後の捜索で待機中か。

20141111_rjnt_02ja6502

JA6502 AS350 AAK

20141111_rjnt_03ja817a

スポーツ緑地は、紅地に・・

20141111_rjnt_04ja817a

ANA886 RJNT-RJTT JA817A B787-8

20141111_rjnt_05hl7731

AAR127 RJNT-RKSI HL7731 A321-231

RJNT 110300Z 35006KT 320V040 9999 FEW040 15/05 Q1015

20141111_rjnt_06b5130

先週初めて-700が来た上海。今日はノーマルな-800。

20141111_rjnt_07b5130

CSH825 ZSPD-RJNT B-5130 B737-8Q8

20141111_rjnt_08ja6768

午後も海岸線に探し物・・

20141111_rjnt_09ja300k

ADO120 RJCC-RJNT JA300K B737-54K

20141111_rjnt_10b5130

20141111_rjnt_11b5130

20141111_rjnt_12b5130

ADOのトラックバック待ち

20141111_rjnt_13ja300k

はいはい、空きましたよ。

20141111_rjnt_14b5130

CSH826 RJNT-ZSPD B-5130 B737-8Q8

RJNT 110500Z 35006KT 9999 FEW030 16/07 Q1014

20141111_rjnt_15ja6768

捜索から帰還。ブレーキ、ブレーキ。

20141111_rjnt_16ja300k

20141111_rjnt_17ja300k

ADO121 RJNT-RJCC JA300K B737-54K

20141111_rjnt_18ja8360

20141111_rjnt_19ja8360

ANA885 RJTT-RJNT JA8360 B767-381

20141111_rjnt_20ja8360

ANA888 RJNT-RJTT JA8360 B767-381

RJNT 110700Z 01006KT 9999 FEW060 BKN/// 15/08 Q1014

20141111_rjnt_21ja8569

20141111_rjnt_22ja8569

20141111_rjnt_23ja8569

ANA887 RJTT-RJNT JA8569 B767-381

20141111_rjnt_24ja970a

20141111_rjnt_25ja970a

JA970A AW139 JCG

夕方、海保も捜索に出動。捜索活動後、富山空港に着陸した。

もう光が周らないので、ここで撤収。

RJTT-RJNT
ANA     /882 JA8324
ANA881/884 JA8569
ANA883/886 JA817A
ANA885/888 JA8360
ANA887/890 JA8569
ANA889/892 JA8324
ANA891       JA8669

RJCC-RJNT
ADO120/121 JA300K

RKSI-RJNT
AAR128/127 HL7731 

ZSPD-RJNT
CSH825/826 B-5130

|

« 道草 龍ヶ崎飛行場 2014/11/7 fri | トップページ | 飴ちゃん 小松飛行場 2014/11/10 mon »

富山空港」カテゴリの記事

コメント

コメントを書く



(ウェブ上には掲載しません)


コメントは記事投稿者が公開するまで表示されません。



トラックバック


この記事へのトラックバック一覧です: 定点 富山空港 2014/11/11 tue:

« 道草 龍ヶ崎飛行場 2014/11/7 fri | トップページ | 飴ちゃん 小松飛行場 2014/11/10 mon »